Flight Track Log - Related Links

Times and Time Zones

All times are in EDT time to prevent confusion due to time zone crossing. See the FLG4073 flight status page for this flight to view local times or setup timezone preferences in your user account.

Time Position Orientation Groundspeed Altitude Reporting Facility
EDT Latitude Longitude Course Direction KTS MPH feet Rate Location/Type
Mon 03:45:38 PM 42.4567 -81.8922 276° West 336 387 19,000  Level FAA TRACON SMA TRACON (SMA)
Mon 03:46:39 PM 42.4669 -82.0178 277° West 334 384 17,400 -1,680 Descending FAA TRACON SMA TRACON (SMA)
Mon 03:47:18 PM 42.4764 -82.1169 276° West 331 381 16,200 -1,747 Descending FAA TRACON SMA TRACON (SMA)
Mon 03:47:58 PM 42.4831 -82.2008 275° West 327 376 15,100 -1,650 Descending FAA TRACON SMA TRACON (SMA)
Mon 03:48:38 PM 42.4878 -82.2803 277° West 323 372 14,000 -1,703 Descending FAA TRACON SMA TRACON (SMA)
Mon 03:49:12 PM 42.4944 -82.3572 273° West 320 368 13,000 -1,558 Descending Cleveland Center
Mon 03:49:55 PM 42.4975 -82.4333 278° West 302 348 12,000 -577 Descending Cleveland Center
Mon 03:50:56 PM 42.5083 -82.5378 246° West 266 306 12,000 -393 Level Cleveland Center
Mon 03:51:57 PM 42.4817 -82.6186 247° West 245 282 11,200 -1,131 Descending Cleveland Center
Mon 03:52:58 PM 42.4531 -82.7078 245° Southwest 238 274 9,700 -1,180 Descending Cleveland Center
Mon 03:53:59 PM 42.4267 -82.7858 263° West 236 272 8,800 -984 Descending Cleveland Center
Mon 03:55:00 PM 42.4186 -82.8697 267° West 239 275 7,700 -983 Descending Cleveland Center
Mon 03:55:55 PM 42.4147 -82.9625 262° West 231 266 6,900 -879 Descending Cleveland Center
Mon 03:56:56 PM 42.4067 -83.0436 249° West 225 259 6,000 -836 Descending Cleveland Center
Mon 03:57:57 PM 42.3842 -83.1217 252° West 216 249 5,200 -1,029 Descending Cleveland Center
Mon 03:58:41 PM 42.3725 -83.1692 248° West 206 237 4,200 -1,333 Descending FAA TRACON SMA TRACON (SMA)
Mon 03:59:18 PM 42.3589 -83.2158 224° Southwest 200 230 3,400 -935 Descending FAA TRACON SMA TRACON (SMA)
Mon 03:59:58 PM 42.3328 -83.2497 209° Southwest 187 215 3,000 -593 Descending FAA TRACON SMA TRACON (SMA)
Mon 04:00:39 PM 42.3036 -83.2714 210° Southwest 178 205 2,600 -741 Descending FAA TRACON SMA TRACON (SMA)
Mon 04:01:19 PM 42.2781 -83.2917 208° Southwest 148 170 2,000 -750 Descending FAA TRACON SMA TRACON (SMA)
Mon 04:01:59 PM 42.2575 -83.3064 208° Southwest 123 142 1,600 -684 Descending FAA TRACON SMA TRACON (SMA)
Mon 04:02:38 PM 42.2356 -83.3222 209° Southwest 136 157 1,100 -608 Descending FAA TRACON SMA TRACON (SMA)
Mon 04:03:18 PM 42.2214 -83.3328 209° Southwest 137 158 800 -450 Descending FAA TRACON SMA TRACON (SMA)

Login

Don't have an account? Register now (free) for customized features, flight alerts, and more!